Time;durP1;ratioP1;P1;durP2;ratioP2;P2;SDS_P1;SDS_P2;PMS_P1;PMS_P2;Temp;Humidity;BMP_temperature;BMP_pressure;BME280_temperature;BME280_humidity;BME280_pressure;Samples;Min_cycle;Max_cycle;Signal;HPM_P1;HPM_P2
2023/10/25 00:02:15;;;;;;;5.93;3.60;;;;;;;10.02;100.00;100123.53;5044874;28;20041;-86
2023/10/25 00:04:40;;;;;;;4.88;3.50;;;;;;;10.01;100.00;100114.00;5037700;28;20049;-85
2023/10/25 00:07:07;;;;;;;3.40;3.10;;;;;;;10.00;100.00;100104.44;5042856;28;20037;-86
2023/10/25 00:09:32;;;;;;;6.28;3.50;;;;;;;10.00;100.00;100109.69;5055863;28;20435;-85
2023/10/25 00:11:57;;;;;;;3.30;3.00;;;;;;;9.99;100.00;100105.38;5055095;28;20060;-86
2023/10/25 00:14:23;;;;;;;4.32;3.92;;;;;;;9.96;100.00;100097.69;5037324;28;20061;-86
2023/10/25 00:16:48;;;;;;;5.60;3.50;;;;;;;9.96;100.00;100100.31;5036517;28;20284;-86
2023/10/25 00:19:13;;;;;;;4.10;3.47;;;;;;;9.95;100.00;100102.09;5037162;28;20039;-86
2023/10/25 00:21:39;;;;;;;5.93;4.00;;;;;;;9.95;100.00;100101.22;5052120;28;20025;-86
2023/10/25 00:24:04;;;;;;;4.35;3.72;;;;;;;9.95;100.00;100101.22;5049659;28;20348;-86
2023/10/25 00:26:30;;;;;;;7.07;3.90;;;;;;;9.95;100.00;100101.22;5036289;28;20221;-86
2023/10/25 00:28:55;;;;;;;5.20;3.80;;;;;;;9.93;100.00;100090.84;5037379;28;20237;-85
2023/10/25 00:31:21;;;;;;;5.47;4.35;;;;;;;9.91;100.00;100099.69;5057071;28;20040;-86
2023/10/25 00:33:46;;;;;;;6.93;4.10;;;;;;;9.91;100.00;100097.91;5053815;28;20095;-86
2023/10/25 00:36:11;;;;;;;7.30;3.80;;;;;;;9.93;100.00;100098.69;5041688;28;20251;-85
2023/10/25 00:38:37;;;;;;;8.60;4.22;;;;;;;9.91;100.00;100099.69;5043464;28;20031;-86
2023/10/25 00:41:02;;;;;;;6.05;3.63;;;;;;;9.90;100.00;100098.84;5051636;28;20110;-85
2023/10/25 00:43:27;;;;;;;5.97;4.22;;;;;;;9.89;100.00;100093.69;5047221;28;20032;-86
2023/10/25 00:46:00;;;;;;;11.93;4.07;;;;;;;9.90;100.00;100105.84;5036706;28;20063;-86
2023/10/25 00:48:27;;;;;;;4.07;3.72;;;;;;;9.91;100.00;100094.44;5042728;28;20032;-86
2023/10/25 00:50:52;;;;;;;6.82;4.40;;;;;;;9.89;100.00;100094.53;5053246;28;20246;-86
2023/10/25 00:53:18;;;;;;;14.40;4.43;;;;;;;9.87;100.00;100092.91;5036223;28;20037;-85
2023/10/25 00:55:44;;;;;;;4.50;3.97;;;;;;;9.87;100.00;100090.31;5035818;28;20164;-86
2023/10/25 00:58:09;;;;;;;4.55;3.78;;;;;;;9.85;100.00;100081.69;5037486;28;20032;-86
2023/10/25 01:00:35;;;;;;;7.00;3.50;;;;;;;9.86;100.00;100081.63;5039091;28;20327;-86
2023/10/25 01:03:07;;;;;;;4.72;3.83;;;;;;;9.88;100.00;100082.38;5034709;28;20044;-86
2023/10/25 01:05:32;;;;;;;6.32;3.67;;;;;;;9.87;100.00;100077.22;5052797;28;20057;-86
2023/10/25 01:07:57;;;;;;;3.85;3.53;;;;;;;9.88;100.00;100071.09;5052366;28;20036;-86
2023/10/25 01:10:23;;;;;;;5.20;3.97;;;;;;;9.89;100.00;100064.91;5051476;28;20075;-86
2023/10/25 01:12:48;;;;;;;4.25;3.70;;;;;;;9.90;100.00;100069.25;5055324;28;20125;-86
2023/10/25 01:15:14;;;;;;;11.45;4.45;;;;;;;9.87;100.00;100064.16;5037080;28;20044;-85
2023/10/25 01:17:39;;;;;;;5.20;4.25;;;;;;;9.85;100.00;100066.00;5034266;28;20263;-86
2023/10/25 01:20:06;;;;;;;4.85;3.90;;;;;;;9.83;100.00;100065.22;5046693;28;20063;-86
2023/10/25 01:22:31;;;;;;;8.85;4.40;;;;;;;9.84;100.00;100065.16;5047963;28;20028;-86
2023/10/25 01:24:57;;;;;;;6.22;4.07;;;;;;;9.81;100.00;100062.69;5045388;28;20223;-86
2023/10/25 01:27:22;;;;;;;7.30;4.20;;;;;;;9.79;100.00;100052.31;5044739;28;20131;-86
2023/10/25 01:29:48;;;;;;;5.38;3.75;;;;;;;9.78;100.00;100050.59;5037626;28;20033;-86
2023/10/25 01:32:13;;;;;;;7.57;3.95;;;;;;;9.79;100.00;100047.06;5040373;28;20331;-86
2023/10/25 01:34:38;;;;;;;9.38;4.13;;;;;;;9.78;100.00;100053.22;5042699;28;20044;-86
2023/10/25 01:37:04;;;;;;;10.10;4.78;;;;;;;9.76;100.00;100052.44;5039496;28;20036;-86
2023/10/25 01:39:29;;;;;;;10.32;4.90;;;;;;;9.74;100.00;100049.06;5039969;28;20055;-86
2023/10/25 01:41:55;;;;;;;4.82;3.95;;;;;;;9.78;100.00;100053.22;5040940;28;20255;-86
2023/10/25 01:44:20;;;;;;;4.22;3.80;;;;;;;9.78;100.00;100047.16;5045092;28;20203;-86
2023/10/25 01:46:45;;;;;;;5.13;3.90;;;;;;;9.77;100.00;100038.47;5046095;28;20033;-85
2023/10/25 01:49:11;;;;;;;7.35;3.80;;;;;;;9.76;100.00;100028.91;5042924;28;20103;-86
2023/10/25 01:51:36;;;;;;;4.63;3.60;;;;;;;9.74;100.00;100032.53;5054294;28;20315;-85
2023/10/25 01:54:01;;;;;;;4.03;3.63;;;;;;;9.72;100.00;100039.63;5038328;28;20037;-86
2023/10/25 01:56:27;;;;;;;4.07;3.72;;;;;;;9.69;100.00;100032.75;5052506;28;20100;-86
2023/10/25 01:58:52;;;;;;;4.20;3.60;;;;;;;9.67;100.00;100037.22;5043728;28;20088;-86
2023/10/25 02:01:18;;;;;;;3.85;3.53;;;;;;;9.64;100.00;100034.78;5048295;28;20227;-85
2023/10/25 02:03:43;;;;;;;3.60;3.30;;;;;;;9.61;100.00;100022.69;5049875;28;20124;-86
2023/10/25 02:06:14;;;;;;;5.45;3.53;;;;;;;9.60;100.00;100021.00;5045005;28;20056;-86
2023/10/25 02:08:40;;;;;;;3.95;3.55;;;;;;;9.57;100.00;100015.94;5052695;28;20033;-85
2023/10/25 02:11:07;;;;;;;5.63;4.00;;;;;;;9.56;100.00;100013.38;5053145;28;20277;-86
2023/10/25 02:13:33;;;;;;;4.78;3.55;;;;;;;9.52;100.00;100012.69;5037023;28;20044;-86
2023/10/25 02:15:58;;;;;;;4.90;3.50;;;;;;;9.51;100.00;100007.53;5034971;28;20458;-85
2023/10/25 02:18:24;;;;;;;4.13;3.42;;;;;;;9.48;100.00;100005.06;5034802;28;20096;-86
2023/10/25 02:20:49;;;;;;;3.42;3.13;;;;;;;9.46;100.00;100002.53;5034870;28;20033;-86
2023/10/25 02:23:14;;;;;;;5.90;3.30;;;;;;;9.45;100.00;100005.22;5034133;28;20017;-86
2023/10/25 02:25:40;;;;;;;4.68;3.15;;;;;;;9.43;100.00;100001.84;5036130;28;20045;-85
2023/10/25 02:28:05;;;;;;;3.83;3.40;;;;;;;9.43;100.00;99999.25;5035734;28;20030;-86
2023/10/25 02:30:31;;;;;;;6.43;3.70;;;;;;;9.39;100.00;99995.94;5035385;28;20044;-85
2023/10/25 02:32:56;;;;;;;4.57;3.60;;;;;;;9.37;100.00;99997.78;5034112;28;20344;-86
2023/10/25 02:35:22;;;;;;;4.63;3.13;;;;;;;9.35;100.00;99992.63;5035909;28;20045;-85
2023/10/25 02:37:47;;;;;;;4.07;3.22;;;;;;;9.33;100.00;99991.84;5035074;28;20294;-86
2023/10/25 02:40:12;;;;;;;4.00;3.28;;;;;;;9.32;100.00;99990.16;5036015;28;20037;-85
2023/10/25 02:42:42;;;;;;;5.78;3.65;;;;;;;9.30;100.00;99985.94;5040866;28;20033;-86
2023/10/25 02:45:08;;;;;;;3.97;3.58;;;;;;;9.30;100.00;99991.16;5053965;28;20484;-86
2023/10/25 02:47:33;;;;;;;3.90;3.63;;;;;;;9.30;100.00;99991.16;5054452;28;20041;-85
2023/10/25 02:49:58;;;;;;;5.20;3.95;;;;;;;9.27;100.00;99989.53;5055149;28;20037;-86
2023/10/25 02:52:24;;;;;;;5.40;4.03;;;;;;;9.25;100.00;99987.91;5054834;28;20085;-86
2023/10/25 02:54:49;;;;;;;4.85;4.35;;;;;;;9.25;100.00;99982.69;5043323;28;20225;-85
2023/10/25 02:57:14;;;;;;;5.10;4.57;;;;;;;9.23;100.00;99983.59;5045078;28;20090;-85
2023/10/25 02:59:42;;;;;;;6.03;4.70;;;;;;;9.21;100.00;99977.59;5046623;28;20037;-85
2023/10/25 03:02:07;;;;;;;5.78;4.85;;;;;;;9.20;100.00;99983.78;5036169;28;20309;-85
2023/10/25 03:04:32;;;;;;;4.82;4.32;;;;;;;9.18;100.00;99982.13;5045520;28;20164;-86
2023/10/25 03:06:58;;;;;;;5.50;4.57;;;;;;;9.16;100.00;99976.97;5039001;28;20104;-85
2023/10/25 03:09:23;;;;;;;7.57;5.45;;;;;;;9.14;100.00;99986.66;5054523;28;20032;-85
2023/10/25 03:11:48;;;;;;;5.50;4.85;;;;;;;9.13;100.00;99978.88;5058773;28;20236;-85
2023/10/25 03:14:14;;;;;;;5.65;5.10;;;;;;;9.14;100.00;99980.59;5055418;28;20099;-85
2023/10/25 03:16:39;;;;;;;5.82;5.10;;;;;;;9.12;100.00;99970.22;5054829;28;20033;-85
2023/10/25 03:19:04;;;;;;;5.43;4.93;;;;;;;9.12;100.00;99979.81;5056574;28;20047;-85
2023/10/25 03:21:30;;;;;;;5.47;4.97;;;;;;;9.11;100.00;99970.28;5038575;28;20093;-85
2023/10/25 03:23:55;;;;;;;5.40;5.00;;;;;;;9.13;100.00;99963.22;5039430;28;20056;-85
2023/10/25 03:26:20;;;;;;;5.95;5.35;;;;;;;9.12;100.00;99949.31;5058743;28;20028;-86
2023/10/25 03:28:46;;;;;;;5.22;4.72;;;;;;;9.09;100.00;99949.47;5041174;28;20124;-85
2023/10/25 03:31:11;;;;;;;5.20;4.70;;;;;;;9.09;100.00;99943.41;5039038;28;20037;-86
2023/10/25 03:33:37;;;;;;;5.72;4.88;;;;;;;9.09;100.00;99946.00;5038594;28;20033;-85
2023/10/25 03:36:02;;;;;;;7.10;4.68;;;;;;;9.06;100.00;99954.84;5056449;28;20029;-85
2023/10/25 03:38:28;;;;;;;6.28;5.25;;;;;;;9.06;100.00;99954.00;5057966;28;20064;-86
2023/10/25 03:41:05;;;;;;;7.45;4.75;;;;;;;9.07;100.00;99950.47;5042840;28;20070;-85
2023/10/25 03:43:33;;;;;;;5.97;4.70;;;;;;;9.06;100.00;99944.41;5036975;28;20064;-86
2023/10/25 03:46:05;;;;;;;4.85;4.40;;;;;;;9.06;100.00;99947.03;5038864;28;20029;-85
2023/10/25 03:48:32;;;;;;;6.38;4.57;;;;;;;9.05;100.00;99940.09;5037988;28;20057;-85
2023/10/25 03:50:57;;;;;;;5.40;4.63;;;;;;;9.05;100.00;99936.63;5038459;28;20029;-85
2023/10/25 03:53:23;;;;;;;7.43;4.65;;;;;;;9.06;100.00;99927.88;5037956;28;20109;-85
2023/10/25 03:55:58;;;;;;;6.13;5.10;;;;;;;9.05;100.00;99940.09;5038350;28;20041;-85
2023/10/25 03:58:24;;;;;;;8.90;4.43;;;;;;;9.03;100.00;99919.25;5038847;28;20332;-85
2023/10/25 04:01:03;;;;;;;5.00;4.50;;;;;;;9.02;100.00;99925.44;5038156;28;20040;-85
2023/10/25 04:03:29;;;;;;;6.43;4.63;;;;;;;9.02;100.00;99920.19;5045849;28;20021;-85
2023/10/25 04:05:54;;;;;;;5.65;4.97;;;;;;;9.01;100.00;99921.09;5052530;28;20048;-86
2023/10/25 04:08:20;;;;;;;5.03;4.47;;;;;;;9.00;100.00;99922.06;5057781;28;20056;-85
2023/10/25 04:10:53;;;;;;;5.60;4.65;;;;;;;8.99;100.00;99912.50;5054282;28;20320;-85
2023/10/25 04:13:19;;;;;;;6.93;4.80;;;;;;;8.98;100.00;99917.81;5056426;28;20063;-85
2023/10/25 04:16:02;;;;;;;5.82;5.28;;;;;;;8.97;100.00;99916.13;5048181;28;20065;-85
2023/10/25 04:18:28;;;;;;;6.50;4.53;;;;;;;8.96;100.00;99915.25;5054507;28;20044;-85
2023/10/25 04:20:55;;;;;;;8.52;4.80;;;;;;;8.95;100.00;99910.09;5047264;28;20028;-85
2023/10/25 04:23:21;;;;;;;5.63;4.40;;;;;;;8.94;100.00;99916.28;5056536;28;20035;-85
2023/10/25 04:25:47;;;;;;;5.07;4.68;;;;;;;8.94;100.00;99911.03;5043162;28;20037;-86
2023/10/25 04:28:13;;;;;;;5.40;4.63;;;;;;;8.94;100.00;99911.88;5037980;28;20314;-86
2023/10/25 04:30:39;;;;;;;5.60;5.07;;;;;;;8.93;100.00;99907.59;5037357;28;20037;-86
2023/10/25 04:33:04;;;;;;;5.20;4.80;;;;;;;8.93;100.00;99905.00;5036001;28;20029;-86
2023/10/25 04:35:29;;;;;;;5.28;4.85;;;;;;;8.92;100.00;99900.66;5037736;28;20037;-85
2023/10/25 04:37:55;;;;;;;5.78;4.65;;;;;;;8.93;100.00;99889.31;5037273;28;20041;-85
2023/10/25 04:40:21;;;;;;;7.47;5.22;;;;;;;8.92;100.00;99887.63;5036134;28;20438;-85
2023/10/25 04:42:50;;;;;;;7.82;5.35;;;;;;;8.94;100.00;99880.53;5037018;28;20152;-85
2023/10/25 04:45:16;;;;;;;5.93;4.55;;;;;;;8.96;100.00;99883.91;5037821;28;20037;-86
2023/10/25 04:47:41;;;;;;;5.25;4.70;;;;;;;8.97;100.00;99883.00;5035624;28;20112;-85
2023/10/25 04:50:07;;;;;;;6.68;5.22;;;;;;;8.97;100.00;99872.56;5037081;28;20079;-85
2023/10/25 04:52:32;;;;;;;7.85;5.30;;;;;;;8.98;100.00;99878.63;5036728;28;20029;-85
2023/10/25 04:54:57;;;;;;;7.28;5.07;;;;;;;8.99;100.00;99869.88;5040655;28;20037;-85
2023/10/25 04:57:23;;;;;;;7.70;5.40;;;;;;;8.98;100.00;99866.41;5057014;28;20045;-85
2023/10/25 04:59:49;;;;;;;5.70;5.15;;;;;;;9.00;100.00;99861.13;5056255;28;20404;-86
2023/10/25 05:02:14;;;;;;;6.05;4.60;;;;;;;9.01;100.00;99865.44;5056992;28;20035;-85
2023/10/25 05:04:40;;;;;;;6.30;4.72;;;;;;;9.00;100.00;99858.50;5045310;28;20037;-85
2023/10/25 05:07:05;;;;;;;5.07;4.32;;;;;;;9.01;100.00;99861.03;5056854;28;20464;-86
2023/10/25 05:09:34;;;;;;;5.78;4.90;;;;;;;9.00;100.00;99848.94;5052523;28;20033;-85
2023/10/25 05:12:03;;;;;;;6.32;5.30;;;;;;;9.02;100.00;99848.81;5036799;28;20044;-85
2023/10/25 05:14:29;;;;;;;7.10;5.18;;;;;;;9.00;100.00;99846.31;5036422;28;20040;-85
2023/10/25 05:16:55;;;;;;;7.50;4.70;;;;;;;9.02;100.00;99854.03;5048559;28;20347;-85
2023/10/25 05:19:20;;;;;;;5.13;4.70;;;;;;;9.03;100.00;99842.69;5041583;28;20029;-85
2023/10/25 05:21:50;;;;;;;4.90;4.45;;;;;;;9.04;100.00;99847.00;5041523;28;20037;-85
2023/10/25 05:24:16;;;;;;;10.88;5.40;;;;;;;9.02;100.00;99849.69;5037691;28;20201;-85
2023/10/25 05:26:42;;;;;;;6.38;4.82;;;;;;;9.02;100.00;99836.63;5039546;28;20083;-85
2023/10/25 05:29:08;;;;;;;5.32;4.80;;;;;;;9.03;100.00;99840.91;5056574;28;20059;-85
2023/10/25 05:31:34;;;;;;;5.75;5.13;;;;;;;9.05;100.00;99837.41;5046806;28;20044;-85
2023/10/25 05:34:01;;;;;;;5.60;4.60;;;;;;;9.06;100.00;99831.22;5049635;28;20363;-86
2023/10/25 05:36:26;;;;;;;6.13;4.60;;;;;;;9.08;100.00;99824.16;5052892;28;20051;-85
2023/10/25 05:38:52;;;;;;;5.05;4.55;;;;;;;9.08;100.00;99825.03;5043977;28;20143;-85
2023/10/25 05:41:25;;;;;;;4.55;3.92;;;;;;;9.09;100.00;99826.69;5038105;28;20063;-85
2023/10/25 05:44:01;;;;;;;4.60;4.20;;;;;;;9.12;100.00;99828.31;5071165;28;20055;-86
2023/10/25 05:46:26;;;;;;;4.70;4.30;;;;;;;9.12;100.00;99829.16;5081071;28;20308;-85
2023/10/25 05:48:52;;;;;;;5.30;4.65;;;;;;;9.11;100.00;99819.63;5054560;28;20024;-85
2023/10/25 05:51:17;;;;;;;4.82;4.43;;;;;;;9.12;100.00;99823.94;5047949;28;20122;-85
2023/10/25 05:53:43;;;;;;;5.70;4.15;;;;;;;9.13;100.00;99812.59;5048051;28;20100;-85
2023/10/25 05:56:09;;;;;;;5.07;3.85;;;;;;;9.14;100.00;99813.41;5053434;28;20040;-85
2023/10/25 05:58:34;;;;;;;6.35;4.40;;;;;;;9.13;100.00;99802.13;5054195;28;20032;-86
2023/10/25 06:01:08;;;;;;;5.63;4.20;;;;;;;9.16;100.00;99803.72;5045805;28;20051;-86
2023/10/25 06:03:34;;;;;;;5.78;4.30;;;;;;;9.16;100.00;99798.50;5055477;28;20051;-85
2023/10/25 06:06:00;;;;;;;4.72;3.65;;;;;;;9.18;100.00;99796.66;5054602;28;20044;-86
2023/10/25 06:08:26;;;;;;;5.07;3.60;;;;;;;9.18;100.00;99794.88;5053918;28;20202;-85
2023/10/25 06:10:52;;;;;;;3.78;3.42;;;;;;;9.21;100.00;99786.06;5036243;28;20067;-85
2023/10/25 06:13:18;;;;;;;4.68;3.67;;;;;;;9.22;100.00;99782.50;5034474;28;20104;-85
2023/10/25 06:15:45;;;;;;;5.75;4.20;;;;;;;9.21;100.00;99792.13;5033835;28;20049;-85
2023/10/25 06:18:11;;;;;;;4.47;3.35;;;;;;;9.22;100.00;99792.94;5034071;28;20041;-86
2023/10/25 06:20:36;;;;;;;7.40;4.10;;;;;;;9.22;100.00;99785.97;5031977;28;20328;-85
2023/10/25 06:23:02;;;;;;;8.13;4.18;;;;;;;9.23;100.00;99789.44;5034154;28;20022;-86
2023/10/25 06:25:29;;;;;;;8.52;4.47;;;;;;;9.27;100.00;99782.28;5033587;28;20446;-85
2023/10/25 06:27:57;;;;;;;5.93;3.97;;;;;;;9.26;100.00;99786.66;5039007;28;20036;-86
2023/10/25 06:30:23;;;;;;;9.55;5.18;;;;;;;9.28;100.00;99776.97;5040224;28;20315;-85
2023/10/25 06:32:48;;;;;;;4.28;3.88;;;;;;;9.25;100.00;99778.91;5032185;28;20029;-85
2023/10/25 06:35:14;;;;;;;4.60;3.40;;;;;;;9.26;100.00;99780.56;5049687;28;20347;-85
2023/10/25 06:37:39;;;;;;;5.95;4.10;;;;;;;9.25;100.00;99787.59;5032067;28;20220;-86
2023/10/25 06:40:05;;;;;;;5.05;4.45;;;;;;;9.23;100.00;99768.53;5032961;28;20029;-86
2023/10/25 06:42:31;;;;;;;8.27;4.30;;;;;;;9.26;100.00;99770.13;5033172;28;20343;-85
2023/10/25 06:44:57;;;;;;;9.13;5.15;;;;;;;9.30;100.00;99766.47;5036837;28;20201;-86
2023/10/25 06:47:25;;;;;;;8.00;4.07;;;;;;;9.28;100.00;99765.66;5037304;28;20044;-85
2023/10/25 06:49:51;;;;;;;6.30;4.90;;;;;;;9.25;100.00;99763.22;5040365;28;20041;-85
2023/10/25 06:52:16;;;;;;;5.57;4.30;;;;;;;9.21;100.00;99760.78;5041265;28;20041;-85
2023/10/25 06:54:42;;;;;;;6.93;4.55;;;;;;;9.23;100.00;99758.91;5038860;28;20041;-85
2023/10/25 06:57:08;;;;;;;5.97;4.32;;;;;;;9.23;100.00;99753.69;5039069;28;20095;-85
2023/10/25 06:59:34;;;;;;;9.52;4.80;;;;;;;9.26;100.00;99759.69;5038147;28;20254;-86
2023/10/25 07:02:23;;;;;;;9.57;4.80;;;;;;;9.25;100.00;99751.00;5051971;28;20029;-86
2023/10/25 07:04:54;;;;;;;5.75;4.55;;;;;;;9.27;100.00;99745.69;5058168;28;20040;-86
2023/10/25 07:07:23;;;;;;;8.50;4.20;;;;;;;9.26;100.00;99749.22;5058135;28;20449;-85
2023/10/25 07:09:48;;;;;;;6.32;4.03;;;;;;;9.25;100.00;99744.94;5054300;28;20079;-86
2023/10/25 07:12:14;;;;;;;6.97;3.75;;;;;;;9.23;100.00;99756.31;5052844;28;20028;-86
2023/10/25 07:14:39;;;;;;;7.70;4.25;;;;;;;9.23;100.00;99752.84;5050550;28;20044;-86
2023/10/25 07:17:04;;;;;;;8.18;4.50;;;;;;;9.20;100.00;99747.78;5048858;28;20047;-86
2023/10/25 07:19:30;;;;;;;8.90;4.32;;;;;;;9.20;100.00;99740.81;5050944;28;20039;-85
2023/10/25 07:21:55;;;;;;;7.55;4.30;;;;;;;9.17;100.00;99742.75;5048794;28;20083;-85
2023/10/25 07:24:20;;;;;;;8.45;4.07;;;;;;;9.20;100.00;99743.44;5049255;28;20033;-85
2023/10/25 07:26:46;;;;;;;6.72;4.00;;;;;;;9.22;100.00;99751.16;5045084;28;20101;-85
2023/10/25 07:29:11;;;;;;;4.90;3.60;;;;;;;9.23;100.00;99747.63;5056153;28;20028;-85
2023/10/25 07:31:36;;;;;;;7.25;4.10;;;;;;;9.26;100.00;99744.00;5045962;28;20075;-86
2023/10/25 07:34:02;;;;;;;4.13;3.42;;;;;;;9.25;100.00;99743.16;5046490;28;20365;-85
2023/10/25 07:36:28;;;;;;;4.38;3.97;;;;;;;9.26;100.00;99739.66;5046945;28;20035;-85
2023/10/25 07:38:53;;;;;;;8.65;4.38;;;;;;;9.28;100.00;99735.19;5046911;28;20312;-85
2023/10/25 07:41:19;;;;;;;5.88;4.35;;;;;;;9.27;100.00;99730.88;5046826;28;20355;-85
2023/10/25 07:43:44;;;;;;;6.82;4.63;;;;;;;9.28;100.00;99729.94;5050513;28;20413;-85
2023/10/25 07:46:09;;;;;;;4.03;3.63;;;;;;;9.31;100.00;99723.72;5049752;28;20041;-85
2023/10/25 07:48:35;;;;;;;4.28;3.88;;;;;;;9.33;100.00;99725.34;5052068;28;20087;-85
2023/10/25 07:51:04;;;;;;;5.45;4.22;;;;;;;9.35;100.00;99720.00;5054831;28;20107;-85
2023/10/25 07:53:30;;;;;;;4.45;4.05;;;;;;;9.36;100.00;99713.84;5041774;28;20040;-85
2023/10/25 07:55:55;;;;;;;4.32;3.92;;;;;;;9.37;100.00;99720.78;5055933;28;20044;-85
2023/10/25 07:58:22;;;;;;;5.03;4.00;;;;;;;9.40;100.00;99715.38;5047514;28;20368;-85
2023/10/25 08:00:47;;;;;;;6.32;4.63;;;;;;;9.40;100.00;99712.75;5048573;28;20041;-84
2023/10/25 08:03:16;;;;;;;4.72;4.05;;;;;;;9.42;100.00;99703.06;5053205;28;20055;-85
2023/10/25 08:05:42;;;;;;;5.10;4.60;;;;;;;9.42;100.00;99705.69;5051762;28;20294;-84
2023/10/25 08:08:07;;;;;;;5.60;4.25;;;;;;;9.44;100.00;99706.47;5055900;28;20297;-85
2023/10/25 08:10:33;;;;;;;6.82;4.28;;;;;;;9.45;100.00;99704.69;5046579;28;20057;-85
2023/10/25 08:12:58;;;;;;;5.03;3.90;;;;;;;9.46;100.00;99703.75;5052792;28;20090;-85
2023/10/25 08:15:24;;;;;;;7.78;4.30;;;;;;;9.46;100.00;99702.00;5055196;28;20043;-85
2023/10/25 08:17:52;;;;;;;6.05;4.55;;;;;;;9.46;100.00;99698.50;5044986;28;20041;-84
2023/10/25 08:20:18;;;;;;;8.70;4.70;;;;;;;9.46;100.00;99699.38;5053882;28;20371;-85
2023/10/25 08:22:43;;;;;;;4.53;4.13;;;;;;;9.48;100.00;99701.88;5049136;28;20024;-85
2023/10/25 08:25:09;;;;;;;7.47;4.22;;;;;;;9.49;100.00;99698.38;5055483;28;20044;-84
2023/10/25 08:27:35;;;;;;;4.70;4.20;;;;;;;9.51;100.00;99702.56;5049418;28;20261;-85
2023/10/25 08:30:00;;;;;;;4.57;4.10;;;;;;;9.52;100.00;99698.22;5053196;28;20032;-85
2023/10/25 08:32:26;;;;;;;6.70;4.65;;;;;;;9.52;100.00;99700.81;5048884;28;20072;-85
2023/10/25 08:34:51;;;;;;;4.32;3.72;;;;;;;9.53;100.00;99700.75;5050094;28;20033;-85
2023/10/25 08:37:17;;;;;;;4.50;4.15;;;;;;;9.52;100.00;99691.19;5045678;28;20037;-85
2023/10/25 08:39:42;;;;;;;6.75;4.50;;;;;;;9.54;100.00;99698.97;5048474;28;20063;-84
2023/10/25 08:42:12;;;;;;;5.28;4.50;;;;;;;9.54;100.00;99699.78;5052319;28;20032;-84
2023/10/25 08:44:39;;;;;;;5.50;4.20;;;;;;;9.54;100.00;99691.94;5055843;28;20066;-85
2023/10/25 08:47:05;;;;;;;4.63;4.20;;;;;;;9.53;100.00;99695.50;5048819;28;20194;-85
2023/10/25 08:49:30;;;;;;;6.75;4.22;;;;;;;9.56;100.00;99689.25;5046232;28;20041;-85
2023/10/25 08:51:56;;;;;;;4.47;4.07;;;;;;;9.55;100.00;99677.97;5047318;28;20036;-84
2023/10/25 08:54:24;;;;;;;5.38;4.63;;;;;;;9.52;100.00;99680.75;5044759;28;20478;-85
2023/10/25 08:56:49;;;;;;;7.70;4.10;;;;;;;9.57;100.00;99675.28;5045001;28;20041;-85
2023/10/25 08:59:16;;;;;;;4.72;4.28;;;;;;;9.59;100.00;99676.03;5048063;28;20059;-84
2023/10/25 09:01:41;;;;;;;5.55;4.25;;;;;;;9.61;100.00;99664.56;5045279;28;20048;-85
2023/10/25 09:04:08;;;;;;;11.60;5.13;;;;;;;9.64;100.00;99662.69;5047590;28;20107;-84
2023/10/25 09:06:33;;;;;;;4.43;4.03;;;;;;;9.67;100.00;99658.13;5042863;28;20302;-85
2023/10/25 09:09:08;;;;;;;4.60;4.20;;;;;;;9.68;100.00;99657.22;5047461;28;20214;-84
2023/10/25 09:11:44;;;;;;;7.70;4.10;;;;;;;9.69;100.00;99651.03;5047748;28;20029;-85
2023/10/25 09:14:16;;;;;;;7.13;3.63;;;;;;;9.72;100.00;99647.44;5048239;28;20044;-85
2023/10/25 09:16:43;;;;;;;6.20;4.30;;;;;;;9.69;100.00;99652.81;5047985;28;20036;-85
2023/10/25 09:19:09;;;;;;;6.47;3.92;;;;;;;9.71;100.00;99648.34;5047972;28;20037;-84
2023/10/25 09:21:34;;;;;;;5.85;3.78;;;;;;;9.71;100.00;99646.56;5044344;28;20232;-84
2023/10/25 09:24:02;;;;;;;5.70;3.60;;;;;;;9.72;100.00;99642.22;5045766;28;20033;-84
2023/10/25 09:26:33;;;;;;;6.60;3.67;;;;;;;9.70;100.00;99634.44;5047043;28;20032;-85
2023/10/25 09:28:59;;;;;;;5.18;3.38;;;;;;;9.72;100.00;99632.59;5046107;28;20040;-85
2023/10/25 09:31:29;;;;;;;4.65;3.42;;;;;;;9.77;100.00;99625.31;5048743;28;20037;-85
2023/10/25 09:34:00;;;;;;;4.47;3.88;;;;;;;9.78;100.00;99619.16;5048061;28;20088;-85
2023/10/25 09:36:26;;;;;;;5.50;3.65;;;;;;;9.75;100.00;99613.25;5046899;28;20343;-85
2023/10/25 09:38:53;;;;;;;4.95;3.60;;;;;;;9.70;100.00;99613.53;5046158;28;20032;-85
2023/10/25 09:41:19;;;;;;;7.95;3.47;;;;;;;9.70;100.00;99618.75;5045699;28;20063;-85
2023/10/25 09:43:52;;;;;;;5.95;4.03;;;;;;;9.73;100.00;99608.13;5050696;28;20285;-85
2023/10/25 09:46:21;;;;;;;5.32;3.55;;;;;;;9.77;100.00;99607.03;5048422;28;20029;-85
2023/10/25 09:48:59;;;;;;;4.22;3.88;;;;;;;9.76;100.00;99596.66;5041577;28;20062;-84
2023/10/25 09:52:12;;;;;;;7.65;3.95;;;;;;;9.79;100.00;99591.25;5053936;28;20040;-85
2023/10/25 09:54:46;;;;;;;5.88;3.63;;;;;;;9.73;100.00;99591.59;5021478;28;20045;-85
2023/10/25 09:57:13;;;;;;;11.05;3.58;;;;;;;9.71;100.00;99581.22;5045402;28;20107;-84
2023/10/25 09:59:40;;;;;;;4.53;3.20;;;;;;;9.73;100.00;99584.59;5050224;28;20040;-85
2023/10/25 10:02:10;;;;;;;9.05;4.10;;;;;;;9.77;100.00;99577.44;5048258;28;20041;-85
2023/10/25 10:04:42;;;;;;;6.50;3.92;;;;;;;9.70;100.00;99569.09;5049870;28;20041;-85
2023/10/25 10:07:23;;;;;;;4.80;4.00;;;;;;;9.63;100.00;99570.38;5047217;28;20040;-85
2023/10/25 10:10:07;;;;;;;6.05;3.90;;;;;;;9.57;100.00;99568.94;5043104;28;20056;-85
2023/10/25 10:12:36;;;;;;;7.25;4.50;;;;;;;9.69;100.00;99571.78;5049437;28;20031;-85
2023/10/25 10:15:02;;;;;;;5.30;3.65;;;;;;;9.73;100.00;99561.06;5072961;28;20033;-85
2023/10/25 10:17:34;;;;;;;5.65;4.05;;;;;;;9.75;100.00;99566.19;5047438;28;20052;-86
2023/10/25 10:20:04;;;;;;;9.02;4.10;;;;;;;9.73;100.00;99554.97;5054863;28;20219;-84
2023/10/25 10:22:29;;;;;;;7.68;4.05;;;;;;;9.76;100.00;99553.03;5050054;28;20078;-85
2023/10/25 10:24:57;;;;;;;7.88;4.35;;;;;;;9.76;100.00;99560.03;5054561;28;20331;-85
2023/10/25 10:27:52;;;;;;;10.10;3.80;;;;;;;9.75;100.00;99555.72;5070452;28;20028;-84
2023/10/25 10:30:29;;;;;;;7.50;4.28;;;;;;;9.72;100.00;99556.75;5047663;28;20104;-85
2023/10/25 10:32:56;;;;;;;7.25;4.43;;;;;;;9.71;100.00;99556.84;5048063;28;20063;-85
2023/10/25 10:35:21;;;;;;;8.40;4.47;;;;;;;9.73;100.00;99544.53;5051392;28;20079;-85
2023/10/25 10:38:06;;;;;;;7.32;5.38;;;;;;;9.71;100.00;99547.22;5044954;28;20033;-85
2023/10/25 10:40:31;;;;;;;5.53;4.30;;;;;;;9.72;100.00;99535.84;5043744;28;20312;-85
2023/10/25 10:42:56;;;;;;;8.75;4.65;;;;;;;9.73;100.00;99534.94;5043202;28;20025;-85
2023/10/25 10:45:22;;;;;;;6.47;5.00;;;;;;;9.76;100.00;99526.06;5047646;28;20239;-85
2023/10/25 10:48:18;;;;;;;5.93;5.25;;;;;;;9.78;100.00;99534.66;5045927;28;20035;-85
2023/10/25 10:50:44;;;;;;;5.38;4.68;;;;;;;9.78;100.00;99527.63;5049295;28;20056;-85
2023/10/25 10:53:09;;;;;;;10.57;4.70;;;;;;;9.76;100.00;99529.50;5047086;28;20087;-85
2023/10/25 10:55:35;;;;;;;7.28;5.22;;;;;;;9.78;100.00;99527.63;5047985;28;20048;-85
2023/10/25 10:58:01;;;;;;;5.57;5.05;;;;;;;9.78;100.00;99524.19;5042284;28;20033;-85
2023/10/25 11:00:26;;;;;;;6.60;5.63;;;;;;;9.70;100.00;99514.19;5044406;28;20059;-85
2023/10/25 11:02:53;;;;;;;8.93;4.85;;;;;;;9.74;100.00;99513.06;5043454;28;20029;-85
2023/10/25 11:05:22;;;;;;;6.00;5.00;;;;;;;9.72;100.00;99507.09;5048429;28;20021;-85
2023/10/25 11:07:49;;;;;;;5.63;4.72;;;;;;;9.74;100.00;99507.00;5041580;28;20261;-85
2023/10/25 11:10:16;;;;;;;7.65;5.07;;;;;;;9.76;100.00;99502.53;5038810;28;20311;-85
2023/10/25 11:12:43;;;;;;;6.40;5.20;;;;;;;9.71;100.00;99497.56;5044100;28;20381;-85
2023/10/25 11:15:10;;;;;;;5.70;5.20;;;;;;;9.73;100.00;99497.47;5042668;28;20347;-85
2023/10/25 11:17:36;;;;;;;5.38;4.90;;;;;;;9.78;100.00;99487.59;5049612;28;20068;-85
2023/10/25 11:20:02;;;;;;;6.18;5.47;;;;;;;9.86;100.00;99489.75;5041745;28;20041;-85
2023/10/25 11:22:30;;;;;;;8.18;4.95;;;;;;;9.89;100.00;99487.78;5042131;28;20319;-85
2023/10/25 11:24:57;;;;;;;6.85;5.38;;;;;;;9.89;100.00;99482.56;5049308;28;20056;-85
2023/10/25 11:27:29;;;;;;;7.28;4.80;;;;;;;9.95;100.00;99473.50;5042375;28;20075;-85
2023/10/25 11:29:54;;;;;;;6.80;5.13;;;;;;;10.01;100.00;99472.31;5050423;28;20029;-85
2023/10/25 11:32:20;;;;;;;9.57;4.78;;;;;;;10.01;100.00;99470.53;5046313;28;20047;-85